Time;durP1;ratioP1;P1;durP2;ratioP2;P2;SDS_P1;SDS_P2;PMS_P1;PMS_P2;Temp;Humidity;BMP_temperature;BMP_pressure;BME280_temperature;BME280_humidity;BME280_pressure;Samples;Min_cycle;Max_cycle;Signal;HPM_P1;HPM_P2
2021/04/22 00:02:18;;;;;;;;;;;4.30;99.90;;;;;;10464614;28;19961;-90
2021/04/22 00:07:21;;;;;;;;;;;3.50;99.90;;;;;;10478539;28;20287;-90
2021/04/22 00:12:24;;;;;;;;;;;3.30;99.90;;;;;;10478914;28;19934;-90
2021/04/22 00:17:25;;;;;;;;;;;4.60;99.90;;;;;;10470021;28;19925;-90
2021/04/22 00:22:26;;;;;;;;;;;4.00;99.90;;;;;;10446589;28;19933;-90
2021/04/22 00:27:27;;;;;;;;;;;3.30;99.90;;;;;;10460998;28;19935;-90
2021/04/22 00:32:29;;;;;;;;;;;2.80;99.90;;;;;;10462118;28;19925;-90
2021/04/22 00:37:31;;;;;;;;;;;2.80;99.90;;;;;;10454274;28;19925;-90
2021/04/22 00:42:32;;;;;;;;;;;3.30;99.90;;;;;;10421007;28;19932;-90
2021/04/22 00:47:33;;;;;;;;;;;3.10;99.90;;;;;;10454137;28;19925;-90
2021/04/22 00:52:35;;;;;;;;;;;2.90;99.90;;;;;;10444486;28;19925;-90
2021/04/22 00:57:36;;;;;;;;;;;3.00;99.90;;;;;;10460747;28;20016;-90
2021/04/22 01:02:37;;;;;;;;;;;2.70;99.90;;;;;;10459909;28;20445;-90
2021/04/22 01:07:42;;;;;;;;;;;2.60;99.90;;;;;;10434905;28;20376;-90
2021/04/22 01:12:43;;;;;;;;;;;4.80;99.90;;;;;;10419887;28;20011;-90
2021/04/22 01:17:48;;;;;;;;;;;5.20;99.90;;;;;;10418667;28;19931;-89
2021/04/22 01:22:50;;;;;;;;;;;3.40;99.90;;;;;;10418486;28;19960;-90
2021/04/22 01:27:52;;;;;;;;;;;3.60;99.90;;;;;;10402792;28;19925;-90
2021/04/22 01:32:54;;;;;;;;;;;2.30;99.90;;;;;;10400977;28;20398;-89
2021/04/22 01:37:56;;;;;;;;;;;2.70;99.90;;;;;;10449965;28;20342;-90
2021/04/22 01:42:58;;;;;;;;;;;2.70;99.90;;;;;;10459949;28;20015;-90
2021/04/22 01:48:05;;;;;;;;;;;2.60;99.90;;;;;;10441673;28;19925;-90
2021/04/22 01:53:07;;;;;;;;;;;1.80;99.90;;;;;;10442110;28;19925;-89
2021/04/22 01:58:10;;;;;;;;;;;2.70;99.90;;;;;;10461454;28;19924;-90
2021/04/22 02:03:12;;;;;;;;;;;4.60;99.90;;;;;;10440857;28;19925;-89
2021/04/22 02:08:14;;;;;;;;;;;2.40;99.90;;;;;;10459286;28;19925;-90
2021/04/22 02:13:17;;;;;;;;;;;2.50;99.90;;;;;;10440785;28;19935;-89
2021/04/22 02:18:18;;;;;;;;;;;3.50;99.90;;;;;;10458287;28;20019;-89
2021/04/22 02:23:20;;;;;;;;;;;2.40;99.90;;;;;;10474265;28;19924;-90
2021/04/22 02:28:21;;;;;;;;;;;4.10;99.90;;;;;;10481480;28;20319;-89
2021/04/22 02:33:23;;;;;;;;;;;2.30;99.90;;;;;;10498702;28;19925;-89
2021/04/22 02:38:24;;;;;;;;;;;2.10;99.90;;;;;;10463571;28;19924;-89
2021/04/22 02:43:25;;;;;;;;;;;2.20;99.90;;;;;;10456200;28;19924;-89
2021/04/22 02:48:27;;;;;;;;;;;2.10;99.90;;;;;;10456597;28;20032;-89
2021/04/22 02:53:28;;;;;;;;;;;2.20;99.90;;;;;;10440144;28;19925;-90
2021/04/22 02:58:30;;;;;;;;;;;2.50;99.90;;;;;;10440246;28;19939;-90
2021/04/22 03:03:31;;;;;;;;;;;2.40;99.90;;;;;;10446650;28;19925;-90
2021/04/22 03:08:33;;;;;;;;;;;2.30;99.90;;;;;;10448545;28;19983;-90
2021/04/22 03:13:35;;;;;;;;;;;3.80;99.90;;;;;;10464300;28;19932;-89
2021/04/22 03:18:36;;;;;;;;;;;2.10;99.90;;;;;;10441627;28;19925;-90
2021/04/22 03:23:38;;;;;;;;;;;1.70;99.90;;;;;;10423926;28;19929;-90
2021/04/22 03:28:39;;;;;;;;;;;2.10;99.90;;;;;;10406257;28;20637;-89
2021/04/22 03:33:41;;;;;;;;;;;2.10;99.90;;;;;;10406375;28;19979;-90
2021/04/22 03:38:42;;;;;;;;;;;1.90;99.90;;;;;;10475938;28;19925;-90
2021/04/22 03:43:44;;;;;;;;;;;2.70;99.90;;;;;;10447131;28;20348;-90
2021/04/22 03:48:45;;;;;;;;;;;1.60;99.90;;;;;;10463197;28;20417;-90
2021/04/22 03:53:47;;;;;;;;;;;1.70;99.90;;;;;;10463835;28;20392;-90
2021/04/22 03:58:49;;;;;;;;;;;1.60;99.90;;;;;;10462451;28;19925;-90
2021/04/22 04:03:50;;;;;;;;;;;1.90;99.90;;;;;;10501641;28;19924;-90
2021/04/22 04:08:52;;;;;;;;;;;2.80;99.90;;;;;;10503510;28;20372;-90
2021/04/22 04:13:53;;;;;;;;;;;1.60;99.90;;;;;;10504404;28;20393;-90
2021/04/22 04:18:54;;;;;;;;;;;2.00;99.90;;;;;;10504149;28;20295;-90
2021/04/22 04:23:56;;;;;;;;;;;2.10;99.90;;;;;;10502783;28;20356;-90
2021/04/22 04:28:57;;;;;;;;;;;2.20;99.90;;;;;;10501327;28;19928;-90
2021/04/22 04:33:58;;;;;;;;;;;2.40;99.90;;;;;;10504281;28;19928;-90
2021/04/22 04:39:00;;;;;;;;;;;3.40;99.90;;;;;;10502372;28;19925;-90
2021/04/22 04:44:02;;;;;;;;;;;2.40;99.90;;;;;;10502679;28;19928;-89
2021/04/22 04:49:04;;;;;;;;;;;3.30;99.90;;;;;;10502570;28;19986;-88
2021/04/22 04:54:06;;;;;;;;;;;2.50;99.90;;;;;;10501139;28;20346;-88
2021/04/22 04:59:08;;;;;;;;;;;3.20;99.90;;;;;;10501066;28;20329;-88
2021/04/22 05:04:09;;;;;;;;;;;2.80;99.90;;;;;;10501281;28;19924;-88
2021/04/22 05:09:10;;;;;;;;;;;3.10;99.90;;;;;;10501320;28;20035;-88
2021/04/22 05:14:12;;;;;;;;;;;5.40;99.90;;;;;;10501083;28;20011;-88
2021/04/22 05:19:13;;;;;;;;;;;4.50;99.90;;;;;;10500197;28;20294;-88
2021/04/22 05:24:15;;;;;;;;;;;3.70;99.90;;;;;;10499070;28;20363;-88
2021/04/22 05:29:16;;;;;;;;;;;3.80;99.90;;;;;;10500498;28;20007;-88
2021/04/22 05:34:18;;;;;;;;;;;3.90;99.90;;;;;;10507651;22;19970;-90
2021/04/22 05:39:20;;;;;;;;;;;4.40;99.90;;;;;;10500944;28;19932;-90
2021/04/22 05:44:22;;;;;;;;;;;4.10;99.90;;;;;;10500284;28;19931;-90
2021/04/22 05:49:23;;;;;;;;;;;4.30;99.90;;;;;;10500349;28;19930;-91
2021/04/22 05:54:25;;;;;;;;;;;6.60;99.90;;;;;;10500143;28;19925;-91
2021/04/22 05:59:26;;;;;;;;;;;5.20;99.90;;;;;;10500654;28;19924;-91
2021/04/22 06:04:27;;;;;;;;;;;6.00;99.90;;;;;;10495868;28;19925;-90
2021/04/22 06:09:29;;;;;;;;;;;4.90;99.90;;;;;;10459155;28;19928;-91
2021/04/22 06:14:30;;;;;;;;;;;7.90;99.90;;;;;;10479523;28;19925;-90
2021/04/22 06:19:31;;;;;;;;;;;5.80;99.90;;;;;;10498959;28;20452;-90
2021/04/22 06:24:32;;;;;;;;;;;8.00;99.90;;;;;;10498491;28;19968;-88
2021/04/22 06:29:34;;;;;;;;;;;7.20;99.90;;;;;;10497372;28;19968;-88
2021/04/22 06:34:35;;;;;;;;;;;12.80;99.90;;;;;;10470367;28;19972;-89
2021/04/22 06:39:37;;;;;;;;;;;12.40;95.10;;;;;;10456188;28;20291;-88
2021/04/22 06:44:38;;;;;;;;;;;12.90;92.70;;;;;;10440410;28;19925;-88
2021/04/22 06:49:40;;;;;;;;;;;10.90;95.50;;;;;;10456150;28;19929;-88
2021/04/22 06:54:41;;;;;;;;;;;11.20;96.00;;;;;;10487965;28;19931;-89
2021/04/22 06:59:43;;;;;;;;;;;13.80;91.20;;;;;;10496984;28;20290;-88
2021/04/22 07:04:44;;;;;;;;;;;12.80;81.60;;;;;;10498895;28;20459;-88
2021/04/22 07:09:45;;;;;;;;;;;12.50;90.60;;;;;;10498803;28;19925;-89
2021/04/22 07:14:46;;;;;;;;;;;11.40;87.80;;;;;;10500178;28;19956;-89
2021/04/22 07:19:49;;;;;;;;;;;12.20;90.30;;;;;;10499349;28;19947;-89
2021/04/22 07:24:50;;;;;;;;;;;12.30;82.80;;;;;;10497548;28;20423;-89
2021/04/22 07:29:52;;;;;;;;;;;12.60;92.50;;;;;;10499825;28;19924;-89
2021/04/22 07:34:53;;;;;;;;;;;13.10;91.00;;;;;;10505905;28;20007;-89
2021/04/22 07:39:54;;;;;;;;;;;12.40;84.70;;;;;;10499388;28;20023;-89
2021/04/22 07:44:56;;;;;;;;;;;12.40;86.40;;;;;;10498405;28;19924;-89
2021/04/22 07:49:57;;;;;;;;;;;11.90;85.50;;;;;;10502954;28;20287;-89
2021/04/22 07:54:59;;;;;;;;;;;11.00;82.40;;;;;;10489834;28;19929;-88
2021/04/22 08:00:03;;;;;;;;;;;12.90;73.00;;;;;;10492792;28;19932;-88
2021/04/22 08:05:13;;;;;;;;;;;13.20;78.20;;;;;;10479824;28;19925;-88
2021/04/22 08:10:28;;;;;;;;;;;13.40;70.10;;;;;;10502397;28;19932;-87
2021/04/22 08:15:33;;;;;;;;;;;13.60;70.30;;;;;;10503510;28;19924;-87
2021/04/22 08:20:35;;;;;;;;;;;13.30;71.10;;;;;;10503109;28;19924;-87
2021/04/22 08:25:38;;;;;;;;;;;13.70;66.40;;;;;;10501483;28;19924;-87
2021/04/22 08:30:43;;;;;;;;;;;14.10;68.60;;;;;;10500007;28;19931;-87
2021/04/22 08:35:45;;;;;;;;;;;14.90;63.20;;;;;;10480940;28;19978;-88
2021/04/22 08:40:47;;;;;;;;;;;14.40;64.90;;;;;;10461819;28;19925;-87
2021/04/22 08:45:49;;;;;;;;;;;14.50;66.10;;;;;;10460337;28;19976;-87
2021/04/22 08:50:51;;;;;;;;;;;14.30;61.20;;;;;;10461210;28;19968;-88
2021/04/22 08:55:52;;;;;;;;;;;14.90;63.60;;;;;;10494797;28;20047;-87
2021/04/22 09:00:55;;;;;;;;;;;14.80;61.70;;;;;;10482792;28;19960;-88
2021/04/22 09:05:57;;;;;;;;;;;13.60;62.70;;;;;;10501717;28;20395;-87
2021/04/22 09:10:58;;;;;;;;;;;14.30;63.90;;;;;;10485496;28;19925;-88
2021/04/22 09:16:02;;;;;;;;;;;14.10;65.30;;;;;;10501910;28;19924;-91
2021/04/22 09:21:03;;;;;;;;;;;14.40;65.00;;;;;;10484203;28;19931;-87
2021/04/22 09:26:06;;;;;;;;;;;14.90;62.70;;;;;;10483280;28;19932;-87
2021/04/22 09:31:08;;;;;;;;;;;15.90;57.10;;;;;;10498966;28;19961;-87
2021/04/22 09:36:13;;;;;;;;;;;15.40;56.60;;;;;;10500136;28;20454;-87
2021/04/22 09:41:16;;;;;;;;;;;15.40;60.40;;;;;;10500280;28;19930;-87
2021/04/22 09:46:21;;;;;;;;;;;14.90;58.20;;;;;;10499990;28;19925;-87
2021/04/22 09:51:30;;;;;;;;;;;15.70;56.90;;;;;;10445202;28;19925;-87
2021/04/22 09:56:40;;;;;;;;;;;15.70;60.20;;;;;;10505203;28;20014;-84
2021/04/22 10:01:41;;;;;;;;;;;14.80;61.40;;;;;;10512548;28;19957;-84
2021/04/22 10:06:44;;;;;;;;;;;15.70;59.80;;;;;;10504957;28;20392;-84
2021/04/22 10:11:49;;;;;;;;;;;15.60;55.20;;;;;;10498606;28;20031;-85
2021/04/22 10:16:50;;;;;;;;;;;15.40;59.80;;;;;;10498875;28;20278;-85
2021/04/22 10:21:53;;;;;;;;;;;17.30;56.90;;;;;;10480944;28;19934;-85
2021/04/22 10:26:58;;;;;;;;;;;16.30;56.80;;;;;;10478409;28;19928;-85
2021/04/22 10:31:59;;;;;;;;;;;15.30;57.70;;;;;;10503511;28;20412;-85
2021/04/22 10:37:01;;;;;;;;;;;16.50;58.00;;;;;;10497273;28;20016;-85
2021/04/22 10:42:02;;;;;;;;;;;16.20;54.90;;;;;;10497562;28;19925;-85
2021/04/22 10:47:04;;;;;;;;;;;15.90;55.20;;;;;;10497149;28;19925;-85
2021/04/22 10:52:06;;;;;;;;;;;15.30;52.80;;;;;;10498300;28;19925;-86
2021/04/22 10:57:08;;;;;;;;;;;17.20;55.20;;;;;;10497526;28;19925;-86
2021/04/22 11:02:14;;;;;;;;;;;17.00;50.80;;;;;;10497358;28;19924;-86
2021/04/22 11:07:18;;;;;;;;;;;16.30;51.40;;;;;;10492961;28;19951;-86
2021/04/22 11:12:21;;;;;;;;;;;15.50;52.30;;;;;;10496500;28;19975;-86
2021/04/22 11:17:34;;;;;;;;;;;17.30;54.70;;;;;;10498060;28;19924;-86
2021/04/22 11:22:39;;;;;;;;;;;16.10;57.00;;;;;;10501377;28;19929;-86
2021/04/22 11:27:51;;;;;;;;;;;15.60;54.60;;;;;;10505001;28;20371;-86
2021/04/22 11:32:54;;;;;;;;;;;15.50;54.40;;;;;;10503877;28;19925;-85
2021/04/22 11:38:03;;;;;;;;;;;16.30;54.20;;;;;;10448406;22;19925;-85
2021/04/22 11:43:17;;;;;;;;;;;16.70;52.50;;;;;;10372660;28;19929;-87
2021/04/22 11:48:19;;;;;;;;;;;15.40;55.40;;;;;;10332041;28;19926;-85
2021/04/22 11:53:22;;;;;;;;;;;17.20;53.00;;;;;;10348237;28;20348;-85
2021/04/22 11:58:24;;;;;;;;;;;16.40;51.50;;;;;;10332965;28;19926;-85
2021/04/22 12:03:30;;;;;;;;;;;15.30;53.50;;;;;;10316479;28;19932;-85
2021/04/22 12:08:33;;;;;;;;;;;15.90;52.80;;;;;;10332807;28;20148;-85
2021/04/22 12:13:34;;;;;;;;;;;16.00;56.80;;;;;;10426906;28;19925;-85
2021/04/22 12:18:37;;;;;;;;;;;16.40;54.70;;;;;;10376045;28;19925;-85
2021/04/22 12:23:40;;;;;;;;;;;16.30;51.60;;;;;;10373143;28;19926;-85
2021/04/22 12:28:50;;;;;;;;;;;16.00;53.80;;;;;;10369443;28;20372;-85
2021/04/22 12:33:52;;;;;;;;;;;17.10;53.80;;;;;;10367542;28;19933;-85
2021/04/22 12:38:53;;;;;;;;;;;16.90;53.60;;;;;;10371777;28;19932;-85
2021/04/22 12:43:54;;;;;;;;;;;16.50;54.20;;;;;;10354668;28;19925;-85
2021/04/22 12:49:00;;;;;;;;;;;16.30;54.10;;;;;;10391115;28;19956;-86
2021/04/22 12:54:02;;;;;;;;;;;15.90;56.10;;;;;;10395198;28;19933;-85
2021/04/22 12:59:07;;;;;;;;;;;17.10;54.60;;;;;;10368210;28;20412;-85
2021/04/22 13:04:11;;;;;;;;;;;16.80;51.30;;;;;;10376406;28;19932;-85
2021/04/22 13:09:16;;;;;;;;;;;17.00;51.70;;;;;;10372044;28;19936;-85
2021/04/22 13:14:18;;;;;;;;;;;15.40;50.90;;;;;;10370866;28;19965;-85
2021/04/22 13:19:22;;;;;;;;;;;16.40;55.60;;;;;;10394044;28;19931;-84
2021/04/22 13:24:27;;;;;;;;;;;16.80;54.70;;;;;;10376357;28;19929;-85
2021/04/22 13:29:30;;;;;;;;;;;16.60;51.60;;;;;;10353641;28;20367;-85
2021/04/22 13:34:39;;;;;;;;;;;17.20;51.50;;;;;;10370988;28;19926;-85
2021/04/22 13:39:42;;;;;;;;;;;16.90;53.50;;;;;;10353755;28;19933;-85
2021/04/22 13:44:43;;;;;;;;;;;16.60;52.90;;;;;;10369904;28;19926;-86
2021/04/22 13:49:45;;;;;;;;;;;15.80;57.10;;;;;;10369826;28;19969;-85
2021/04/22 13:54:53;;;;;;;;;;;17.10;57.60;;;;;;10352432;28;19948;-86
2021/04/22 14:00:00;;;;;;;;;;;16.20;55.20;;;;;;10369575;28;20287;-86
2021/04/22 14:05:06;;;;;;;;;;;16.80;56.10;;;;;;10369607;28;20036;-88
2021/04/22 14:10:07;;;;;;;;;;;16.90;55.80;;;;;;10351740;28;19929;-86
2021/04/22 14:15:09;;;;;;;;;;;16.60;56.00;;;;;;10366987;28;19931;-85
2021/04/22 14:20:10;;;;;;;;;;;16.50;56.90;;;;;;10370188;28;19925;-86
2021/04/22 14:25:12;;;;;;;;;;;16.60;56.60;;;;;;10352126;28;19926;-86
2021/04/22 14:30:14;;;;;;;;;;;17.00;55.90;;;;;;10368352;28;20012;-86
2021/04/22 14:35:15;;;;;;;;;;;16.40;56.50;;;;;;10363553;28;19933;-86
2021/04/22 14:40:16;;;;;;;;;;;16.00;54.90;;;;;;10369193;28;20396;-87
2021/04/22 14:45:18;;;;;;;;;;;16.20;56.10;;;;;;10369494;28;19980;-86
2021/04/22 14:50:19;;;;;;;;;;;16.20;55.50;;;;;;10351264;28;19926;-87
2021/04/22 14:55:21;;;;;;;;;;;16.00;59.00;;;;;;10327316;28;19926;-88
2021/04/22 15:00:22;;;;;;;;;;;15.70;56.20;;;;;;10334513;28;19930;-87
2021/04/22 15:05:24;;;;;;;;;;;15.60;59.50;;;;;;10329106;28;19926;-87
2021/04/22 15:10:25;;;;;;;;;;;15.40;59.20;;;;;;10339526;28;20017;-88
2021/04/22 15:15:26;;;;;;;;;;;15.20;59.00;;;;;;10298092;28;19926;-88
2021/04/22 15:20:28;;;;;;;;;;;15.30;60.70;;;;;;10293350;28;20029;-87
2021/04/22 15:25:30;;;;;;;;;;;14.90;60.30;;;;;;10327352;28;20380;-87
2021/04/22 15:30:31;;;;;;;;;;;15.20;60.80;;;;;;10298556;28;19926;-85
2021/04/22 15:35:33;;;;;;;;;;;15.20;59.70;;;;;;10334630;28;19933;-85
2021/04/22 15:40:35;;;;;;;;;;;15.00;59.70;;;;;;10369801;28;19932;-84
2021/04/22 15:45:36;;;;;;;;;;;14.60;59.30;;;;;;10357103;28;20349;-85
2021/04/22 15:50:38;;;;;;;;;;;14.30;59.40;;;;;;10373370;28;19964;-85
2021/04/22 15:55:40;;;;;;;;;;;14.30;60.30;;;;;;10372869;28;20280;-85
2021/04/22 16:00:43;;;;;;;;;;;14.00;60.50;;;;;;10374897;28;19932;-85
2021/04/22 16:05:45;;;;;;;;;;;14.10;59.50;;;;;;10373942;28;20360;-84
2021/04/22 16:10:46;;;;;;;;;;;13.80;60.30;;;;;;10373424;28;20391;-84
2021/04/22 16:15:47;;;;;;;;;;;13.80;62.40;;;;;;10373076;28;19933;-85
2021/04/22 16:20:52;;;;;;;;;;;13.90;62.30;;;;;;10382284;28;19947;-84
2021/04/22 16:25:54;;;;;;;;;;;13.50;62.80;;;;;;10373159;28;19932;-85
2021/04/22 16:30:55;;;;;;;;;;;13.40;61.60;;;;;;10372613;28;19926;-85
2021/04/22 16:35:56;;;;;;;;;;;13.50;65.60;;;;;;10355644;28;19933;-84
2021/04/22 16:40:58;;;;;;;;;;;13.10;64.50;;;;;;10328862;28;19937;-85
2021/04/22 16:45:59;;;;;;;;;;;13.20;67.10;;;;;;10355787;28;19972;-84
2021/04/22 16:51:01;;;;;;;;;;;13.20;64.80;;;;;;10369027;28;20336;-84
2021/04/22 16:56:03;;;;;;;;;;;12.70;68.00;;;;;;10353026;28;19934;-84
2021/04/22 17:01:04;;;;;;;;;;;12.70;66.80;;;;;;10356401;28;19929;-85
2021/04/22 17:06:16;;;;;;;;;;;12.60;67.20;;;;;;10371370;28;20023;-84
2021/04/22 17:11:17;;;;;;;;;;;13.00;68.20;;;;;;10369216;28;20005;-84
2021/04/22 17:16:19;;;;;;;;;;;12.10;69.60;;;;;;10371516;28;19932;-84
2021/04/22 17:21:21;;;;;;;;;;;12.00;70.00;;;;;;10369338;28;19926;-84
2021/04/22 17:26:23;;;;;;;;;;;11.80;72.60;;;;;;10371516;28;19930;-84
2021/04/22 17:31:26;;;;;;;;;;;11.50;76.80;;;;;;10370419;28;20284;-84
2021/04/22 17:36:28;;;;;;;;;;;11.50;77.70;;;;;;10387633;28;19932;-84
2021/04/22 17:41:29;;;;;;;;;;;11.40;79.30;;;;;;10370715;28;19931;-84
2021/04/22 17:46:30;;;;;;;;;;;11.10;82.80;;;;;;10369962;28;20695;-84
2021/04/22 17:51:49;;;;;;;;;;;11.20;82.90;;;;;;10351361;23;19934;-85
2021/04/22 17:56:50;;;;;;;;;;;10.70;84.40;;;;;;10321905;28;20400;-85
2021/04/22 18:01:53;;;;;;;;;;;10.40;88.10;;;;;;10337935;28;19932;-85
2021/04/22 18:06:55;;;;;;;;;;;10.20;89.40;;;;;;10336801;28;20387;-85
2021/04/22 18:11:56;;;;;;;;;;;9.90;90.70;;;;;;10303250;28;19930;-85
2021/04/22 18:16:58;;;;;;;;;;;10.00;91.50;;;;;;10323849;28;19933;-85
2021/04/22 18:22:00;;;;;;;;;;;9.80;92.00;;;;;;10326144;28;20372;-85
2021/04/22 18:27:01;;;;;;;;;;;9.60;92.70;;;;;;10342548;28;19930;-86
2021/04/22 18:32:02;;;;;;;;;;;9.50;93.10;;;;;;10317105;28;19936;-85
2021/04/22 18:37:04;;;;;;;;;;;9.30;94.30;;;;;;10316643;28;19934;-85
2021/04/22 18:42:05;;;;;;;;;;;9.30;94.80;;;;;;10329797;28;19973;-85
2021/04/22 18:47:07;;;;;;;;;;;9.00;96.20;;;;;;10311520;28;19930;-85
2021/04/22 18:52:08;;;;;;;;;;;8.90;96.60;;;;;;10454100;28;20366;-85
2021/04/22 18:57:10;;;;;;;;;;;8.90;97.00;;;;;;10510422;28;20446;-85
2021/04/22 19:02:11;;;;;;;;;;;8.70;97.20;;;;;;10540906;28;19930;-85
2021/04/22 19:07:13;;;;;;;;;;;9.20;97.90;;;;;;10542197;28;19923;-85
2021/04/22 19:12:14;;;;;;;;;;;8.40;98.50;;;;;;10553596;28;19950;-85
2021/04/22 19:17:17;;;;;;;;;;;8.90;98.90;;;;;;10563814;28;19930;-85
2021/04/22 19:22:20;;;;;;;;;;;8.00;98.90;;;;;;10568182;28;20550;-85
2021/04/22 19:27:21;;;;;;;;;;;8.10;99.50;;;;;;10502279;28;19978;-85
2021/04/22 19:32:23;;;;;;;;;;;8.00;99.90;;;;;;10498201;28;19931;-85
2021/04/22 19:37:28;;;;;;;;;;;7.90;99.90;;;;;;10519482;28;19928;-85
2021/04/22 19:42:29;;;;;;;;;;;7.70;99.90;;;;;;10543348;28;19924;-84
2021/04/22 19:47:31;;;;;;;;;;;8.20;99.90;;;;;;10555716;28;19974;-86
2021/04/22 19:52:32;;;;;;;;;;;8.10;99.90;;;;;;10546548;28;19964;-85
2021/04/22 19:57:34;;;;;;;;;;;8.70;99.90;;;;;;10528753;28;19943;-86
2021/04/22 20:02:35;;;;;;;;;;;9.40;99.90;;;;;;10545764;28;19924;-86
2021/04/22 20:07:37;;;;;;;;;;;8.70;99.90;;;;;;10527984;28;19971;-86
2021/04/22 20:12:39;;;;;;;;;;;7.20;99.90;;;;;;10545526;28;19953;-86
2021/04/22 20:17:41;;;;;;;;;;;7.70;99.90;;;;;;10523755;28;20039;-85
2021/04/22 20:22:43;;;;;;;;;;;6.70;99.90;;;;;;10534698;28;20022;-86
2021/04/22 20:27:45;;;;;;;;;;;6.90;99.90;;;;;;10543257;28;20409;-86
2021/04/22 20:32:46;;;;;;;;;;;7.30;99.90;;;;;;10526855;28;19928;-86
2021/04/22 20:37:48;;;;;;;;;;;6.90;99.90;;;;;;10544410;28;19924;-86
2021/04/22 20:42:51;;;;;;;;;;;6.70;99.90;;;;;;10547203;28;19930;-86
2021/04/22 20:47:52;;;;;;;;;;;8.40;99.90;;;;;;10527262;28;20031;-86
2021/04/22 20:52:55;;;;;;;;;;;7.40;99.90;;;;;;10544027;28;19935;-86
2021/04/22 20:57:56;;;;;;;;;;;6.20;99.90;;;;;;10542910;28;19924;-86
2021/04/22 21:02:58;;;;;;;;;;;6.60;99.90;;;;;;10543410;28;19924;-86
2021/04/22 21:08:03;;;;;;;;;;;6.00;99.90;;;;;;10544069;28;19928;-86
2021/04/22 21:13:04;;;;;;;;;;;6.30;99.90;;;;;;10544069;28;19935;-86
2021/04/22 21:18:06;;;;;;;;;;;6.10;99.90;;;;;;10542830;28;20027;-86
2021/04/22 21:23:07;;;;;;;;;;;5.90;99.90;;;;;;10541699;28;19956;-86
2021/04/22 21:28:09;;;;;;;;;;;7.10;99.90;;;;;;10540612;28;19982;-86
2021/04/22 21:33:10;;;;;;;;;;;6.20;99.90;;;;;;10516875;28;19948;-86
2021/04/22 21:38:12;;;;;;;;;;;6.60;99.90;;;;;;10501091;28;20017;-86
2021/04/22 21:43:14;;;;;;;;;;;5.30;99.90;;;;;;10499911;28;19929;-86
2021/04/22 21:48:15;;;;;;;;;;;5.30;99.90;;;;;;10482999;28;19924;-86
2021/04/22 21:53:16;;;;;;;;;;;5.10;99.90;;;;;;10509718;28;20007;-87
2021/04/22 21:58:18;;;;;;;;;;;5.20;99.90;;;;;;10542504;28;19930;-86
2021/04/22 22:03:20;;;;;;;;;;;5.20;99.90;;;;;;10505118;28;20417;-86
2021/04/22 22:08:21;;;;;;;;;;;4.90;99.90;;;;;;10497554;28;19948;-87
2021/04/22 22:13:23;;;;;;;;;;;4.90;99.90;;;;;;10528919;28;19931;-86
2021/04/22 22:18:24;;;;;;;;;;;4.70;99.90;;;;;;10539839;28;19928;-86
2021/04/22 22:23:26;;;;;;;;;;;4.60;99.90;;;;;;10539755;28;19924;-87
2021/04/22 22:28:29;;;;;;;;;;;4.70;99.90;;;;;;10509466;28;19939;-87
2021/04/22 22:33:33;;;;;;;;;;;4.80;99.90;;;;;;10538829;28;19924;-87
2021/04/22 22:38:36;;;;;;;;;;;4.90;99.90;;;;;;10539949;28;19924;-87
2021/04/22 22:43:39;;;;;;;;;;;4.90;99.90;;;;;;10541798;28;19924;-87
2021/04/22 22:48:42;;;;;;;;;;;5.50;99.90;;;;;;10557535;28;19982;-89
2021/04/22 22:53:44;;;;;;;;;;;4.60;99.90;;;;;;10376893;28;20338;-87
2021/04/22 22:58:45;;;;;;;;;;;4.70;99.90;;;;;;10343892;28;19926;-87
2021/04/22 23:03:47;;;;;;;;;;;6.50;99.90;;;;;;10343687;28;19952;-87
2021/04/22 23:08:49;;;;;;;;;;;4.30;99.90;;;;;;10342737;28;19926;-87
2021/04/22 23:13:51;;;;;;;;;;;4.80;99.90;;;;;;10344407;28;19979;-87
2021/04/22 23:18:52;;;;;;;;;;;4.00;99.90;;;;;;10349624;28;19925;-87
2021/04/22 23:23:54;;;;;;;;;;;3.60;99.90;;;;;;10351564;28;19930;-87
2021/04/22 23:28:55;;;;;;;;;;;5.00;99.90;;;;;;10350452;28;19932;-87
2021/04/22 23:33:56;;;;;;;;;;;4.10;99.90;;;;;;10350289;28;19933;-87
2021/04/22 23:38:58;;;;;;;;;;;5.00;99.90;;;;;;10382121;28;19925;-86
2021/04/22 23:43:59;;;;;;;;;;;3.70;99.90;;;;;;10349692;28;20388;-87
2021/04/22 23:49:00;;;;;;;;;;;4.80;99.90;;;;;;10349464;28;20393;-87
2021/04/22 23:54:02;;;;;;;;;;;4.00;99.90;;;;;;10513762;28;19930;-87
2021/04/22 23:59:03;;;;;;;;;;;3.60;99.90;;;;;;10545886;28;19932;-87
